createdAt,value
2022-08-18T00:00:25.862Z,23.80
2022-08-18T00:04:49.160Z,23.70
2022-08-18T00:09:07.904Z,23.70
2022-08-18T00:13:21.749Z,23.60
2022-08-18T00:17:36.739Z,23.50
2022-08-18T00:21:51.273Z,23.50
2022-08-18T00:26:06.846Z,23.40
2022-08-18T00:30:25.223Z,23.40
2022-08-18T00:34:39.162Z,23.40
2022-08-18T00:38:53.823Z,23.40
2022-08-18T00:43:19.340Z,23.40
2022-08-18T00:47:42.379Z,23.40
2022-08-18T00:51:59.213Z,23.40
2022-08-18T00:56:17.842Z,23.40
2022-08-18T01:00:34.047Z,23.40
2022-08-18T01:04:58.759Z,23.30
2022-08-18T01:09:12.725Z,23.20
2022-08-18T01:13:29.620Z,23.20
2022-08-18T01:18:02.911Z,23.10
2022-08-18T01:22:24.385Z,23.00
2022-08-18T01:26:50.614Z,23.00
2022-08-18T01:31:04.793Z,22.90
2022-08-18T01:35:20.920Z,22.90
2022-08-18T01:41:25.164Z,22.90
2022-08-18T01:44:11.766Z,22.80
2022-08-18T01:48:27.401Z,22.80
2022-08-18T01:52:42.026Z,22.70
2022-08-18T01:56:55.874Z,22.70
2022-08-18T02:01:13.358Z,22.60
2022-08-18T02:05:34.681Z,22.60
2022-08-18T02:09:51.154Z,22.60
2022-08-18T02:14:05.546Z,22.60
2022-08-18T02:18:47.063Z,22.50
2022-08-18T02:22:58.668Z,22.60
2022-08-18T02:27:14.775Z,22.60
2022-08-18T02:31:30.034Z,22.60
2022-08-18T02:35:46.298Z,22.60
2022-08-18T02:40:00.648Z,22.60
2022-08-18T02:44:14.716Z,22.60
2022-08-18T02:48:32.359Z,22.50
2022-08-18T02:52:48.179Z,22.50
2022-08-18T02:57:06.933Z,22.50
2022-08-18T03:01:21.654Z,22.60
2022-08-18T03:05:35.811Z,22.60
2022-08-18T03:09:51.181Z,22.60
2022-08-18T03:14:06.523Z,22.60
2022-08-18T03:18:25.109Z,22.60
2022-08-18T03:22:38.931Z,22.60
2022-08-18T03:26:56.812Z,22.50
2022-08-18T03:31:12.270Z,22.50
2022-08-18T03:35:25.989Z,22.50
2022-08-18T03:39:39.839Z,22.40
2022-08-18T03:43:55.016Z,22.40
2022-08-18T03:48:08.738Z,22.30
2022-08-18T03:52:23.507Z,22.30
2022-08-18T03:56:39.564Z,22.20
2022-08-18T04:00:54.824Z,22.10
2022-08-18T04:05:10.214Z,22.10
2022-08-18T04:09:25.675Z,22.10
2022-08-18T04:13:39.781Z,22.10
2022-08-18T04:18:03.225Z,22.20
2022-08-18T04:22:18.521Z,22.20
2022-08-18T04:26:34.535Z,22.30
2022-08-18T04:30:48.528Z,22.40
2022-08-18T04:35:04.321Z,22.40
2022-08-18T04:39:18.164Z,22.40
2022-08-18T04:43:32.804Z,22.50
2022-08-18T04:47:46.672Z,22.60
2022-08-18T04:52:37.511Z,22.60
2022-08-18T04:56:53.371Z,22.60
2022-08-18T05:01:07.509Z,22.70
2022-08-18T05:05:21.507Z,22.80
2022-08-18T05:09:41.147Z,23.00
2022-08-18T05:13:57.857Z,23.20
2022-08-18T05:18:11.739Z,23.40
2022-08-18T05:22:31.003Z,23.70
2022-08-18T05:26:47.005Z,24.00
2022-08-18T05:31:00.838Z,24.30
2022-08-18T05:35:19.604Z,24.60
2022-08-18T05:39:41.254Z,25.00
2022-08-18T05:43:58.386Z,25.50
2022-08-18T05:48:12.220Z,26.10
2022-08-18T05:52:33.122Z,26.60
2022-08-18T05:56:47.305Z,27.20
2022-08-18T06:01:05.931Z,28.00
2022-08-18T06:05:26.786Z,29.00
2022-08-18T06:09:44.644Z,30.10
2022-08-18T06:14:00.369Z,31.20
2022-08-18T06:18:34.610Z,32.30
2022-08-18T06:22:58.963Z,33.30
2022-08-18T06:27:23.962Z,33.90
2022-08-18T06:31:47.139Z,34.40
2022-08-18T06:36:08.925Z,34.80
2022-08-18T06:40:25.664Z,35.20
2022-08-18T06:44:44.659Z,35.60
2022-08-18T06:49:03.611Z,35.90
2022-08-18T06:53:27.791Z,36.40
2022-08-18T06:58:01.364Z,36.90
2022-08-18T07:02:22.130Z,37.40
2022-08-18T07:06:36.603Z,37.80
2022-08-18T07:10:53.668Z,38.00
2022-08-18T07:15:08.427Z,38.10
2022-08-18T07:19:28.985Z,37.70
2022-08-18T07:23:44.225Z,36.80
2022-08-18T07:28:01.974Z,36.00
2022-08-18T07:32:21.546Z,35.50
2022-08-18T07:36:47.539Z,35.10
2022-08-18T07:41:10.029Z,34.60
2022-08-18T07:45:31.178Z,34.20
2022-08-18T07:50:16.407Z,33.70
2022-08-18T07:54:52.261Z,33.20
2022-08-18T07:59:17.106Z,32.50
2022-08-18T08:03:46.070Z,31.90
2022-08-18T08:08:05.363Z,31.50
2022-08-18T08:12:26.452Z,31.40
2022-08-18T08:16:47.709Z,31.20
2022-08-18T08:21:09.506Z,31.10
2022-08-18T08:30:06.685Z,31.20
2022-08-18T08:34:27.210Z,31.70
2022-08-18T08:38:48.839Z,32.60
2022-08-18T08:43:08.763Z,33.10
2022-08-18T08:47:26.313Z,33.50
2022-08-18T08:51:46.488Z,33.60
2022-08-18T08:56:07.587Z,33.40
2022-08-18T09:00:21.656Z,33.20
2022-08-18T09:04:54.194Z,33.00
2022-08-18T09:09:37.750Z,32.80
2022-08-18T09:14:20.138Z,32.60
2022-08-18T09:18:45.022Z,32.40
2022-08-18T09:23:05.559Z,32.30
2022-08-18T09:27:48.480Z,32.30
2022-08-18T09:32:44.512Z,32.30
2022-08-18T09:37:13.429Z,32.70
2022-08-18T09:41:33.078Z,33.10
2022-08-18T09:45:59.708Z,33.40
2022-08-18T09:50:38.889Z,33.50
2022-08-18T09:54:54.942Z,33.70
2022-08-18T09:59:10.885Z,34.20
2022-08-18T10:08:38.677Z,35.20
2022-08-18T10:13:12.410Z,35.50
2022-08-18T10:17:44.639Z,35.60
2022-08-18T10:22:09.059Z,35.60
2022-08-18T10:27:08.267Z,35.70
2022-08-18T10:31:27.293Z,35.80
2022-08-18T10:36:03.019Z,35.60
2022-08-18T10:40:21.554Z,35.10
2022-08-18T10:44:43.332Z,34.60
2022-08-18T10:49:06.986Z,34.20
2022-08-18T10:53:44.151Z,33.70
2022-08-18T10:58:28.179Z,33.20
2022-08-18T11:12:14.430Z,31.70
2022-08-18T11:16:45.409Z,31.50
2022-08-18T11:21:26.997Z,31.20
2022-08-18T11:25:43.075Z,30.90
2022-08-18T11:30:01.706Z,30.60
2022-08-18T11:34:18.509Z,30.30
2022-08-18T11:38:34.581Z,30.20
2022-08-18T11:42:57.211Z,30.10
2022-08-18T11:47:16.335Z,30.20
2022-08-18T11:51:33.608Z,30.20
2022-08-18T11:56:03.564Z,30.20
2022-08-18T12:00:57.324Z,30.10
2022-08-18T12:05:18.020Z,29.90
2022-08-18T12:10:18.461Z,29.70
2022-08-18T12:14:32.667Z,29.70
2022-08-18T12:18:50.699Z,29.60
2022-08-18T12:23:07.586Z,29.70
2022-08-18T12:27:23.578Z,29.80
2022-08-18T12:31:42.619Z,29.80
2022-08-18T12:36:04.256Z,29.80
2022-08-18T12:40:20.405Z,29.60
2022-08-18T12:44:34.283Z,29.50
2022-08-18T12:48:48.747Z,29.30
2022-08-18T12:53:04.329Z,29.10
2022-08-18T12:57:33.471Z,29.00
2022-08-18T13:01:58.336Z,28.90
2022-08-18T13:06:14.139Z,28.70
2022-08-18T13:10:44.792Z,28.60
2022-08-18T13:15:00.117Z,28.30
2022-08-18T13:19:15.092Z,28.10
2022-08-18T13:23:29.140Z,27.90
2022-08-18T13:32:09.463Z,27.60
2022-08-18T13:36:24.888Z,27.40
2022-08-18T13:40:45.679Z,27.30
2022-08-18T13:45:24.988Z,27.30
2022-08-18T13:49:36.480Z,27.30
2022-08-18T13:54:06.297Z,27.30
2022-08-18T13:58:28.394Z,27.30
2022-08-18T14:02:44.183Z,27.30
2022-08-18T14:07:03.237Z,27.30
2022-08-18T14:11:27.456Z,27.30
2022-08-18T14:15:47.198Z,27.20
2022-08-18T14:20:37.169Z,27.00
2022-08-18T14:25:08.751Z,26.90
2022-08-18T14:29:42.997Z,26.80
2022-08-18T14:33:59.742Z,26.60
2022-08-18T14:38:21.190Z,26.50
2022-08-18T14:42:41.728Z,26.50
2022-08-18T14:47:08.012Z,26.50
2022-08-18T14:51:23.411Z,26.50
2022-08-18T14:55:43.126Z,26.50
2022-08-18T14:59:57.385Z,26.40
2022-08-18T15:04:18.744Z,26.40
2022-08-18T15:08:34.472Z,26.30
2022-08-18T15:12:50.898Z,26.30
2022-08-18T15:17:11.842Z,26.40
2022-08-18T15:21:44.684Z,26.60
2022-08-18T15:25:59.622Z,26.60
2022-08-18T15:30:19.549Z,26.80
2022-08-18T15:34:46.476Z,26.90
2022-08-18T15:39:04.643Z,27.00
2022-08-18T15:43:19.425Z,27.10
2022-08-18T15:47:35.184Z,27.10
2022-08-18T15:51:49.123Z,27.10
2022-08-18T15:56:04.448Z,27.20
2022-08-18T16:00:20.385Z,27.10
2022-08-18T16:04:41.331Z,27.10
2022-08-18T16:08:58.886Z,27.00
2022-08-18T16:13:14.666Z,27.00
2022-08-18T16:17:31.765Z,26.90
2022-08-18T16:21:47.238Z,26.90
2022-08-18T16:26:04.380Z,27.00
2022-08-18T16:30:21.360Z,27.00
2022-08-18T16:34:35.670Z,27.00
2022-08-18T16:38:53.362Z,27.10
2022-08-18T16:43:07.335Z,27.10
2022-08-18T16:47:21.235Z,27.00
2022-08-18T16:51:35.391Z,27.00
2022-08-18T16:55:50.797Z,27.00
2022-08-18T17:00:23.791Z,26.90
2022-08-18T17:04:37.586Z,26.80
2022-08-18T17:08:51.415Z,26.70
2022-08-18T17:13:07.040Z,26.70
2022-08-18T17:17:21.298Z,26.60
2022-08-18T17:21:36.546Z,26.60
2022-08-18T17:25:51.291Z,26.50
2022-08-18T17:30:12.576Z,26.40
2022-08-18T17:34:35.040Z,26.30
2022-08-18T17:38:57.190Z,26.10
2022-08-18T17:43:15.248Z,25.90
2022-08-18T17:47:34.034Z,25.80
2022-08-18T17:51:52.612Z,25.70
2022-08-18T17:56:17.031Z,25.70
2022-08-18T18:00:32.579Z,25.60
2022-08-18T18:04:49.221Z,25.50
2022-08-18T18:09:05.953Z,25.40
2022-08-18T18:13:27.168Z,25.30
2022-08-18T18:17:42.631Z,25.30
2022-08-18T18:22:04.751Z,25.20
2022-08-18T18:26:26.088Z,25.20
2022-08-18T18:30:39.925Z,25.10
2022-08-18T18:35:09.596Z,25.10
2022-08-18T18:39:33.191Z,25.10
2022-08-18T18:43:51.190Z,25.00
2022-08-18T18:48:09.221Z,25.00
2022-08-18T18:52:51.599Z,24.90
2022-08-18T18:57:14.975Z,25.00
2022-08-18T19:01:36.603Z,24.90
2022-08-18T19:06:02.963Z,24.90
2022-08-18T19:10:26.631Z,24.90
2022-08-18T19:14:52.093Z,24.90
2022-08-18T19:19:37.833Z,24.90
2022-08-18T19:24:02.810Z,24.80
2022-08-18T19:28:21.131Z,24.80
2022-08-18T19:32:42.596Z,24.80
2022-08-18T19:37:02.853Z,24.80
2022-08-18T19:41:28.976Z,24.70
2022-08-18T19:45:51.697Z,24.70
2022-08-18T19:50:15.755Z,24.80
2022-08-18T19:54:52.002Z,24.70
2022-08-18T19:59:35.059Z,24.40
2022-08-18T20:04:08.772Z,24.10
2022-08-18T20:08:56.074Z,23.60
2022-08-18T20:13:27.532Z,23.30
2022-08-18T20:18:03.959Z,22.90
2022-08-18T20:22:33.872Z,22.70
2022-08-18T20:26:51.066Z,22.50
2022-08-18T20:31:13.033Z,22.40
2022-08-18T20:35:31.884Z,22.40
2022-08-18T20:39:48.148Z,22.40
2022-08-18T20:44:28.787Z,22.50
2022-08-18T20:49:06.157Z,22.40
2022-08-18T20:53:50.333Z,22.40
2022-08-18T20:58:11.121Z,22.50
2022-08-18T21:02:30.543Z,22.50
2022-08-18T21:06:45.380Z,22.60
2022-08-18T21:11:02.926Z,22.60
2022-08-18T21:15:16.737Z,22.50
2022-08-18T21:19:32.074Z,22.50
2022-08-18T21:23:54.721Z,22.50
2022-08-18T21:28:08.926Z,22.50
2022-08-18T21:32:29.210Z,22.50
2022-08-18T21:36:55.457Z,22.40
2022-08-18T21:41:14.807Z,22.40
2022-08-18T21:45:30.464Z,22.40
2022-08-18T21:50:02.609Z,22.40
2022-08-18T21:54:21.375Z,22.30
2022-08-18T21:58:45.345Z,22.20
2022-08-18T22:03:21.983Z,22.10
2022-08-18T22:07:36.833Z,22.00
2022-08-18T22:12:37.680Z,22.00
2022-08-18T22:16:51.764Z,22.00
2022-08-18T22:21:11.647Z,22.00
2022-08-18T22:25:26.389Z,22.00
2022-08-18T22:29:46.702Z,22.10
2022-08-18T22:34:07.277Z,22.10
2022-08-18T22:38:21.165Z,22.20
2022-08-18T22:42:35.593Z,22.20
2022-08-18T22:46:52.804Z,22.20
2022-08-18T22:51:07.901Z,22.20
2022-08-18T22:55:25.264Z,22.20
2022-08-18T22:59:42.699Z,22.20
2022-08-18T23:03:58.460Z,22.20
2022-08-18T23:08:15.537Z,22.20
2022-08-18T23:12:29.645Z,22.20
2022-08-18T23:16:45.620Z,22.30
2022-08-18T23:21:02.079Z,22.20
2022-08-18T23:25:16.260Z,22.20
2022-08-18T23:29:30.694Z,22.20
2022-08-18T23:33:44.636Z,22.30
2022-08-18T23:37:59.903Z,22.30
2022-08-18T23:42:13.929Z,22.20
2022-08-18T23:46:29.744Z,22.20
2022-08-18T23:50:46.405Z,22.10
2022-08-18T23:55:05.408Z,22.00
2022-08-18T23:59:21.982Z,21.90
